sensor_id;sensor_type;location;lat;lon;timestamp;P1;durP1;ratioP1;P2;durP2;ratioP2
20894;SDS011;10607;42.066;24.742;2024-01-10T00:01:57;27.60;;;16.30;;
20894;SDS011;10607;42.066;24.742;2024-01-10T00:04:22;21.80;;;12.80;;
20894;SDS011;10607;42.066;24.742;2024-01-10T00:06:48;21.53;;;10.93;;
20894;SDS011;10607;42.066;24.742;2024-01-10T00:09:13;17.53;;;11.13;;
20894;SDS011;10607;42.066;24.742;2024-01-10T00:11:38;16.00;;;10.10;;
20894;SDS011;10607;42.066;24.742;2024-01-10T00:14:04;15.00;;;9.10;;
20894;SDS011;10607;42.066;24.742;2024-01-10T00:16:30;13.77;;;9.07;;
20894;SDS011;10607;42.066;24.742;2024-01-10T00:18:55;14.50;;;8.60;;
20894;SDS011;10607;42.066;24.742;2024-01-10T00:21:20;13.93;;;7.43;;
20894;SDS011;10607;42.066;24.742;2024-01-10T00:23:45;9.77;;;6.33;;
20894;SDS011;10607;42.066;24.742;2024-01-10T00:26:10;9.43;;;6.77;;
20894;SDS011;10607;42.066;24.742;2024-01-10T00:28:36;10.60;;;6.57;;
20894;SDS011;10607;42.066;24.742;2024-01-10T00:31:01;10.03;;;6.17;;
20894;SDS011;10607;42.066;24.742;2024-01-10T00:33:26;9.17;;;5.27;;
20894;SDS011;10607;42.066;24.742;2024-01-10T00:35:51;9.23;;;5.50;;
20894;SDS011;10607;42.066;24.742;2024-01-10T00:38:17;7.87;;;5.40;;
20894;SDS011;10607;42.066;24.742;2024-01-10T00:40:42;8.13;;;4.60;;
20894;SDS011;10607;42.066;24.742;2024-01-10T00:43:07;8.30;;;5.37;;
20894;SDS011;10607;42.066;24.742;2024-01-10T00:45:33;5.90;;;4.63;;
20894;SDS011;10607;42.066;24.742;2024-01-10T00:47:58;5.53;;;4.23;;
20894;SDS011;10607;42.066;24.742;2024-01-10T00:50:23;5.90;;;4.23;;
20894;SDS011;10607;42.066;24.742;2024-01-10T00:52:49;5.43;;;4.20;;
20894;SDS011;10607;42.066;24.742;2024-01-10T00:55:14;6.40;;;4.00;;
20894;SDS011;10607;42.066;24.742;2024-01-10T00:57:39;7.20;;;4.40;;
20894;SDS011;10607;42.066;24.742;2024-01-10T01:00:05;5.87;;;4.03;;
20894;SDS011;10607;42.066;24.742;2024-01-10T01:02:31;7.93;;;4.80;;
20894;SDS011;10607;42.066;24.742;2024-01-10T01:04:56;9.47;;;5.57;;
20894;SDS011;10607;42.066;24.742;2024-01-10T01:07:21;9.20;;;5.87;;
20894;SDS011;10607;42.066;24.742;2024-01-10T01:09:46;10.53;;;6.80;;
20894;SDS011;10607;42.066;24.742;2024-01-10T01:12:12;9.47;;;5.80;;
20894;SDS011;10607;42.066;24.742;2024-01-10T01:14:37;38.03;;;14.00;;
20894;SDS011;10607;42.066;24.742;2024-01-10T01:17:02;11.73;;;7.17;;
20894;SDS011;10607;42.066;24.742;2024-01-10T01:19:28;12.03;;;7.63;;
20894;SDS011;10607;42.066;24.742;2024-01-10T01:21:53;15.43;;;7.53;;
20894;SDS011;10607;42.066;24.742;2024-01-10T01:24:18;14.80;;;9.20;;
20894;SDS011;10607;42.066;24.742;2024-01-10T01:26:43;20.87;;;10.47;;
20894;SDS011;10607;42.066;24.742;2024-01-10T01:29:09;18.83;;;12.80;;
20894;SDS011;10607;42.066;24.742;2024-01-10T01:31:34;16.70;;;10.43;;
20894;SDS011;10607;42.066;24.742;2024-01-10T01:33:59;23.67;;;14.93;;
20894;SDS011;10607;42.066;24.742;2024-01-10T01:36:24;16.43;;;12.27;;
20894;SDS011;10607;42.066;24.742;2024-01-10T01:38:50;18.73;;;11.67;;
20894;SDS011;10607;42.066;24.742;2024-01-10T01:41:15;18.27;;;10.37;;
20894;SDS011;10607;42.066;24.742;2024-01-10T01:43:40;17.13;;;10.93;;
20894;SDS011;10607;42.066;24.742;2024-01-10T01:46:06;18.63;;;12.63;;
20894;SDS011;10607;42.066;24.742;2024-01-10T01:48:32;17.30;;;11.10;;
20894;SDS011;10607;42.066;24.742;2024-01-10T01:51:00;16.87;;;9.90;;
20894;SDS011;10607;42.066;24.742;2024-01-10T01:53:27;23.80;;;11.97;;
20894;SDS011;10607;42.066;24.742;2024-01-10T01:55:53;17.27;;;10.03;;
20894;SDS011;10607;42.066;24.742;2024-01-10T01:58:19;26.33;;;13.43;;
20894;SDS011;10607;42.066;24.742;2024-01-10T02:00:45;24.13;;;12.40;;
20894;SDS011;10607;42.066;24.742;2024-01-10T02:03:11;21.73;;;13.47;;
20894;SDS011;10607;42.066;24.742;2024-01-10T02:05:36;22.93;;;12.87;;
20894;SDS011;10607;42.066;24.742;2024-01-10T02:08:01;23.63;;;14.17;;
20894;SDS011;10607;42.066;24.742;2024-01-10T02:10:27;22.53;;;12.90;;
20894;SDS011;10607;42.066;24.742;2024-01-10T02:12:52;21.13;;;12.90;;
20894;SDS011;10607;42.066;24.742;2024-01-10T02:15:17;25.10;;;14.20;;
20894;SDS011;10607;42.066;24.742;2024-01-10T02:17:43;19.57;;;13.10;;
20894;SDS011;10607;42.066;24.742;2024-01-10T02:20:12;20.60;;;14.13;;
20894;SDS011;10607;42.066;24.742;2024-01-10T02:22:37;20.90;;;12.40;;
20894;SDS011;10607;42.066;24.742;2024-01-10T02:25:04;19.30;;;12.73;;
20894;SDS011;10607;42.066;24.742;2024-01-10T02:27:29;20.93;;;13.63;;
20894;SDS011;10607;42.066;24.742;2024-01-10T02:29:55;27.77;;;15.07;;
20894;SDS011;10607;42.066;24.742;2024-01-10T02:32:20;23.77;;;13.93;;
20894;SDS011;10607;42.066;24.742;2024-01-10T02:34:45;22.43;;;14.03;;
20894;SDS011;10607;42.066;24.742;2024-01-10T02:37:11;25.77;;;14.97;;
20894;SDS011;10607;42.066;24.742;2024-01-10T02:39:36;22.33;;;13.80;;
20894;SDS011;10607;42.066;24.742;2024-01-10T02:42:01;23.73;;;13.37;;
20894;SDS011;10607;42.066;24.742;2024-01-10T02:44:26;19.80;;;12.63;;
20894;SDS011;10607;42.066;24.742;2024-01-10T02:46:53;21.87;;;13.50;;
20894;SDS011;10607;42.066;24.742;2024-01-10T02:49:18;22.17;;;13.47;;
20894;SDS011;10607;42.066;24.742;2024-01-10T02:51:43;20.00;;;12.27;;
20894;SDS011;10607;42.066;24.742;2024-01-10T02:54:08;19.63;;;11.33;;
20894;SDS011;10607;42.066;24.742;2024-01-10T02:56:34;18.33;;;11.80;;
20894;SDS011;10607;42.066;24.742;2024-01-10T02:58:59;17.93;;;11.27;;
20894;SDS011;10607;42.066;24.742;2024-01-10T03:01:24;16.97;;;11.40;;
20894;SDS011;10607;42.066;24.742;2024-01-10T03:03:49;16.57;;;11.50;;
20894;SDS011;10607;42.066;24.742;2024-01-10T03:06:14;17.30;;;10.50;;
20894;SDS011;10607;42.066;24.742;2024-01-10T03:08:40;19.40;;;11.63;;
20894;SDS011;10607;42.066;24.742;2024-01-10T03:11:05;21.97;;;10.97;;
20894;SDS011;10607;42.066;24.742;2024-01-10T03:13:30;21.47;;;11.30;;
20894;SDS011;10607;42.066;24.742;2024-01-10T03:15:55;18.13;;;10.67;;
20894;SDS011;10607;42.066;24.742;2024-01-10T03:18:21;15.20;;;10.13;;
20894;SDS011;10607;42.066;24.742;2024-01-10T03:20:46;16.83;;;9.50;;
20894;SDS011;10607;42.066;24.742;2024-01-10T03:23:11;17.00;;;10.63;;
20894;SDS011;10607;42.066;24.742;2024-01-10T03:25:36;23.37;;;13.37;;
20894;SDS011;10607;42.066;24.742;2024-01-10T03:28:01;19.33;;;10.80;;
20894;SDS011;10607;42.066;24.742;2024-01-10T03:30:27;14.47;;;9.67;;
20894;SDS011;10607;42.066;24.742;2024-01-10T03:32:53;14.00;;;8.27;;
20894;SDS011;10607;42.066;24.742;2024-01-10T03:35:18;9.87;;;7.30;;
20894;SDS011;10607;42.066;24.742;2024-01-10T03:37:43;9.30;;;6.03;;
20894;SDS011;10607;42.066;24.742;2024-01-10T03:40:08;7.40;;;5.23;;
20894;SDS011;10607;42.066;24.742;2024-01-10T03:42:34;5.43;;;4.20;;
20894;SDS011;10607;42.066;24.742;2024-01-10T03:44:59;8.17;;;4.80;;
20894;SDS011;10607;42.066;24.742;2024-01-10T03:47:24;8.67;;;6.33;;
20894;SDS011;10607;42.066;24.742;2024-01-10T03:49:49;27.67;;;14.97;;
20894;SDS011;10607;42.066;24.742;2024-01-10T03:52:14;20.27;;;12.43;;
20894;SDS011;10607;42.066;24.742;2024-01-10T03:54:40;22.50;;;12.07;;
20894;SDS011;10607;42.066;24.742;2024-01-10T03:57:05;26.60;;;14.57;;
20894;SDS011;10607;42.066;24.742;2024-01-10T03:59:31;26.83;;;13.57;;
20894;SDS011;10607;42.066;24.742;2024-01-10T04:01:56;22.30;;;13.60;;
20894;SDS011;10607;42.066;24.742;2024-01-10T04:04:21;32.17;;;17.53;;
20894;SDS011;10607;42.066;24.742;2024-01-10T04:06:47;23.63;;;14.03;;
20894;SDS011;10607;42.066;24.742;2024-01-10T04:09:12;22.80;;;13.70;;
20894;SDS011;10607;42.066;24.742;2024-01-10T04:11:38;20.87;;;13.50;;
20894;SDS011;10607;42.066;24.742;2024-01-10T04:14:03;20.03;;;12.73;;
20894;SDS011;10607;42.066;24.742;2024-01-10T04:16:29;23.60;;;13.60;;
20894;SDS011;10607;42.066;24.742;2024-01-10T04:18:54;19.37;;;11.33;;
20894;SDS011;10607;42.066;24.742;2024-01-10T04:21:19;23.70;;;11.87;;
20894;SDS011;10607;42.066;24.742;2024-01-10T04:23:44;19.83;;;11.57;;
20894;SDS011;10607;42.066;24.742;2024-01-10T04:26:09;15.53;;;10.43;;
20894;SDS011;10607;42.066;24.742;2024-01-10T04:28:35;19.77;;;11.33;;
20894;SDS011;10607;42.066;24.742;2024-01-10T04:31:00;18.23;;;11.20;;
20894;SDS011;10607;42.066;24.742;2024-01-10T04:33:25;16.63;;;10.47;;
20894;SDS011;10607;42.066;24.742;2024-01-10T04:35:51;19.07;;;11.13;;
20894;SDS011;10607;42.066;24.742;2024-01-10T04:38:16;17.60;;;11.43;;
20894;SDS011;10607;42.066;24.742;2024-01-10T04:40:41;20.87;;;12.97;;
20894;SDS011;10607;42.066;24.742;2024-01-10T04:43:06;20.07;;;12.87;;
20894;SDS011;10607;42.066;24.742;2024-01-10T04:45:31;22.03;;;11.97;;
20894;SDS011;10607;42.066;24.742;2024-01-10T04:47:57;18.67;;;11.47;;
20894;SDS011;10607;42.066;24.742;2024-01-10T04:50:22;21.73;;;13.90;;
20894;SDS011;10607;42.066;24.742;2024-01-10T04:52:47;18.07;;;10.43;;
20894;SDS011;10607;42.066;24.742;2024-01-10T04:55:12;17.83;;;11.63;;
20894;SDS011;10607;42.066;24.742;2024-01-10T04:57:37;20.67;;;11.37;;
20894;SDS011;10607;42.066;24.742;2024-01-10T05:00:03;20.30;;;11.10;;
20894;SDS011;10607;42.066;24.742;2024-01-10T05:02:29;18.50;;;11.00;;
20894;SDS011;10607;42.066;24.742;2024-01-10T05:04:54;18.00;;;11.63;;
20894;SDS011;10607;42.066;24.742;2024-01-10T05:07:20;20.07;;;11.37;;
20894;SDS011;10607;42.066;24.742;2024-01-10T05:09:45;18.53;;;11.50;;
20894;SDS011;10607;42.066;24.742;2024-01-10T05:12:10;18.63;;;11.80;;
20894;SDS011;10607;42.066;24.742;2024-01-10T05:14:36;23.53;;;12.40;;
20894;SDS011;10607;42.066;24.742;2024-01-10T05:17:01;19.30;;;11.60;;
20894;SDS011;10607;42.066;24.742;2024-01-10T05:19:26;17.97;;;12.30;;
20894;SDS011;10607;42.066;24.742;2024-01-10T05:21:51;17.03;;;10.57;;
20894;SDS011;10607;42.066;24.742;2024-01-10T05:24:16;20.17;;;12.23;;
20894;SDS011;10607;42.066;24.742;2024-01-10T05:26:43;21.03;;;11.77;;
20894;SDS011;10607;42.066;24.742;2024-01-10T05:29:08;22.20;;;12.43;;
20894;SDS011;10607;42.066;24.742;2024-01-10T05:31:34;19.80;;;11.53;;
20894;SDS011;10607;42.066;24.742;2024-01-10T05:33:59;16.43;;;10.90;;
20894;SDS011;10607;42.066;24.742;2024-01-10T05:36:24;17.40;;;10.60;;
20894;SDS011;10607;42.066;24.742;2024-01-10T05:38:49;19.10;;;10.97;;
20894;SDS011;10607;42.066;24.742;2024-01-10T05:41:14;15.87;;;10.13;;
20894;SDS011;10607;42.066;24.742;2024-01-10T05:43:40;17.03;;;9.73;;
20894;SDS011;10607;42.066;24.742;2024-01-10T05:46:06;17.30;;;9.87;;
20894;SDS011;10607;42.066;24.742;2024-01-10T05:48:31;15.90;;;9.83;;
20894;SDS011;10607;42.066;24.742;2024-01-10T05:50:57;18.27;;;9.27;;
20894;SDS011;10607;42.066;24.742;2024-01-10T05:53:23;17.13;;;10.10;;
20894;SDS011;10607;42.066;24.742;2024-01-10T05:55:48;17.97;;;10.50;;
20894;SDS011;10607;42.066;24.742;2024-01-10T05:58:14;20.47;;;10.87;;
20894;SDS011;10607;42.066;24.742;2024-01-10T06:00:39;18.57;;;11.27;;
20894;SDS011;10607;42.066;24.742;2024-01-10T06:03:04;15.87;;;10.83;;
20894;SDS011;10607;42.066;24.742;2024-01-10T06:05:29;20.53;;;11.47;;
20894;SDS011;10607;42.066;24.742;2024-01-10T06:07:56;21.80;;;12.97;;
20894;SDS011;10607;42.066;24.742;2024-01-10T06:10:22;20.10;;;11.23;;
20894;SDS011;10607;42.066;24.742;2024-01-10T06:12:47;18.80;;;11.23;;
20894;SDS011;10607;42.066;24.742;2024-01-10T06:15:12;17.67;;;10.33;;
20894;SDS011;10607;42.066;24.742;2024-01-10T06:17:37;20.20;;;9.63;;
20894;SDS011;10607;42.066;24.742;2024-01-10T06:20:03;13.50;;;9.20;;
20894;SDS011;10607;42.066;24.742;2024-01-10T06:22:29;16.83;;;9.40;;
20894;SDS011;10607;42.066;24.742;2024-01-10T06:24:54;14.30;;;9.03;;
20894;SDS011;10607;42.066;24.742;2024-01-10T06:27:19;11.30;;;8.43;;
20894;SDS011;10607;42.066;24.742;2024-01-10T06:29:45;13.63;;;7.83;;
20894;SDS011;10607;42.066;24.742;2024-01-10T06:32:10;11.93;;;7.33;;
20894;SDS011;10607;42.066;24.742;2024-01-10T06:34:36;12.23;;;8.23;;
20894;SDS011;10607;42.066;24.742;2024-01-10T06:37:01;10.87;;;7.63;;
20894;SDS011;10607;42.066;24.742;2024-01-10T06:39:26;11.27;;;7.47;;
20894;SDS011;10607;42.066;24.742;2024-01-10T06:41:52;14.93;;;8.47;;
20894;SDS011;10607;42.066;24.742;2024-01-10T06:44:17;15.73;;;9.73;;
20894;SDS011;10607;42.066;24.742;2024-01-10T06:46:43;10.50;;;7.77;;
20894;SDS011;10607;42.066;24.742;2024-01-10T06:49:09;11.67;;;7.47;;
20894;SDS011;10607;42.066;24.742;2024-01-10T06:51:34;11.47;;;7.63;;
20894;SDS011;10607;42.066;24.742;2024-01-10T06:53:59;14.10;;;8.00;;
20894;SDS011;10607;42.066;24.742;2024-01-10T06:56:31;13.93;;;8.40;;
20894;SDS011;10607;42.066;24.742;2024-01-10T06:58:57;15.00;;;8.87;;
20894;SDS011;10607;42.066;24.742;2024-01-10T07:01:23;18.77;;;10.47;;
20894;SDS011;10607;42.066;24.742;2024-01-10T07:03:48;14.63;;;10.07;;
20894;SDS011;10607;42.066;24.742;2024-01-10T07:06:14;17.60;;;9.77;;
20894;SDS011;10607;42.066;24.742;2024-01-10T07:08:42;12.77;;;9.67;;
20894;SDS011;10607;42.066;24.742;2024-01-10T07:11:09;17.17;;;10.10;;
20894;SDS011;10607;42.066;24.742;2024-01-10T07:13:36;15.23;;;10.83;;
20894;SDS011;10607;42.066;24.742;2024-01-10T07:16:01;17.00;;;11.10;;
20894;SDS011;10607;42.066;24.742;2024-01-10T07:18:27;19.77;;;10.13;;
20894;SDS011;10607;42.066;24.742;2024-01-10T07:20:53;19.93;;;11.50;;
20894;SDS011;10607;42.066;24.742;2024-01-10T07:23:18;32.63;;;20.80;;
20894;SDS011;10607;42.066;24.742;2024-01-10T07:25:43;48.20;;;30.20;;
20894;SDS011;10607;42.066;24.742;2024-01-10T07:28:08;48.77;;;27.47;;
20894;SDS011;10607;42.066;24.742;2024-01-10T07:30:33;41.27;;;22.13;;
20894;SDS011;10607;42.066;24.742;2024-01-10T07:32:59;25.53;;;14.60;;
20894;SDS011;10607;42.066;24.742;2024-01-10T07:35:24;21.30;;;12.80;;
20894;SDS011;10607;42.066;24.742;2024-01-10T07:37:50;19.13;;;12.10;;
20894;SDS011;10607;42.066;24.742;2024-01-10T07:40:15;18.70;;;12.03;;
20894;SDS011;10607;42.066;24.742;2024-01-10T07:42:40;17.90;;;11.23;;
20894;SDS011;10607;42.066;24.742;2024-01-10T07:45:06;18.33;;;12.73;;
20894;SDS011;10607;42.066;24.742;2024-01-10T07:47:31;23.90;;;11.90;;
20894;SDS011;10607;42.066;24.742;2024-01-10T07:49:59;20.00;;;13.33;;
20894;SDS011;10607;42.066;24.742;2024-01-10T07:52:25;24.53;;;13.77;;
20894;SDS011;10607;42.066;24.742;2024-01-10T07:54:50;23.43;;;13.43;;
20894;SDS011;10607;42.066;24.742;2024-01-10T07:57:15;20.20;;;13.00;;
20894;SDS011;10607;42.066;24.742;2024-01-10T07:59:43;19.53;;;12.53;;
20894;SDS011;10607;42.066;24.742;2024-01-10T08:02:08;22.13;;;11.13;;
20894;SDS011;10607;42.066;24.742;2024-01-10T08:04:35;18.87;;;11.73;;
20894;SDS011;10607;42.066;24.742;2024-01-10T08:07:00;19.47;;;11.40;;
20894;SDS011;10607;42.066;24.742;2024-01-10T08:09:26;21.50;;;11.30;;
20894;SDS011;10607;42.066;24.742;2024-01-10T08:11:51;16.77;;;10.73;;
20894;SDS011;10607;42.066;24.742;2024-01-10T08:14:16;19.13;;;11.30;;
20894;SDS011;10607;42.066;24.742;2024-01-10T08:16:42;21.97;;;12.67;;
20894;SDS011;10607;42.066;24.742;2024-01-10T08:19:07;19.77;;;13.47;;
20894;SDS011;10607;42.066;24.742;2024-01-10T08:21:33;26.80;;;14.80;;
20894;SDS011;10607;42.066;24.742;2024-01-10T08:23:58;25.47;;;15.60;;
20894;SDS011;10607;42.066;24.742;2024-01-10T08:26:23;19.47;;;11.43;;
20894;SDS011;10607;42.066;24.742;2024-01-10T08:28:48;18.40;;;11.27;;
20894;SDS011;10607;42.066;24.742;2024-01-10T08:31:16;18.33;;;10.83;;
20894;SDS011;10607;42.066;24.742;2024-01-10T08:33:42;17.90;;;11.80;;
20894;SDS011;10607;42.066;24.742;2024-01-10T08:36:07;18.07;;;10.57;;
20894;SDS011;10607;42.066;24.742;2024-01-10T08:38:34;23.10;;;11.70;;
20894;SDS011;10607;42.066;24.742;2024-01-10T08:41:00;20.80;;;11.93;;
20894;SDS011;10607;42.066;24.742;2024-01-10T08:43:25;15.33;;;10.17;;
20894;SDS011;10607;42.066;24.742;2024-01-10T08:45:50;16.53;;;10.10;;
20894;SDS011;10607;42.066;24.742;2024-01-10T08:48:15;16.43;;;10.57;;
20894;SDS011;10607;42.066;24.742;2024-01-10T08:50:42;15.73;;;10.13;;
20894;SDS011;10607;42.066;24.742;2024-01-10T08:53:07;20.33;;;9.77;;
20894;SDS011;10607;42.066;24.742;2024-01-10T08:55:32;20.23;;;9.77;;
20894;SDS011;10607;42.066;24.742;2024-01-10T08:57:59;15.50;;;9.00;;
20894;SDS011;10607;42.066;24.742;2024-01-10T09:00:24;16.23;;;8.60;;
20894;SDS011;10607;42.066;24.742;2024-01-10T09:02:49;16.40;;;9.17;;
20894;SDS011;10607;42.066;24.742;2024-01-10T09:05:15;17.53;;;8.93;;
20894;SDS011;10607;42.066;24.742;2024-01-10T09:07:40;13.77;;;8.77;;
20894;SDS011;10607;42.066;24.742;2024-01-10T09:10:07;16.83;;;9.30;;
20894;SDS011;10607;42.066;24.742;2024-01-10T09:12:32;16.20;;;10.70;;
20894;SDS011;10607;42.066;24.742;2024-01-10T09:14:58;19.10;;;10.67;;
20894;SDS011;10607;42.066;24.742;2024-01-10T09:17:23;18.10;;;11.17;;
20894;SDS011;10607;42.066;24.742;2024-01-10T09:19:48;18.43;;;10.87;;
20894;SDS011;10607;42.066;24.742;2024-01-10T09:22:14;17.67;;;11.13;;
20894;SDS011;10607;42.066;24.742;2024-01-10T09:24:39;17.73;;;10.57;;
20894;SDS011;10607;42.066;24.742;2024-01-10T09:27:04;17.87;;;10.70;;
20894;SDS011;10607;42.066;24.742;2024-01-10T09:29:29;19.37;;;10.77;;
20894;SDS011;10607;42.066;24.742;2024-01-10T09:31:56;16.60;;;11.00;;
20894;SDS011;10607;42.066;24.742;2024-01-10T09:34:21;17.87;;;11.70;;
20894;SDS011;10607;42.066;24.742;2024-01-10T09:36:47;16.27;;;9.63;;
20894;SDS011;10607;42.066;24.742;2024-01-10T09:39:12;19.97;;;11.23;;
20894;SDS011;10607;42.066;24.742;2024-01-10T09:41:40;17.13;;;12.30;;
20894;SDS011;10607;42.066;24.742;2024-01-10T09:44:09;21.87;;;12.53;;
20894;SDS011;10607;42.066;24.742;2024-01-10T09:46:34;18.73;;;11.90;;
20894;SDS011;10607;42.066;24.742;2024-01-10T09:49:03;16.13;;;12.17;;
20894;SDS011;10607;42.066;24.742;2024-01-10T09:51:28;18.67;;;11.70;;
20894;SDS011;10607;42.066;24.742;2024-01-10T09:53:54;18.10;;;11.60;;
20894;SDS011;10607;42.066;24.742;2024-01-10T09:56:21;18.33;;;12.73;;
20894;SDS011;10607;42.066;24.742;2024-01-10T09:58:46;22.73;;;13.67;;
20894;SDS011;10607;42.066;24.742;2024-01-10T10:01:13;16.93;;;12.43;;
20894;SDS011;10607;42.066;24.742;2024-01-10T10:03:39;19.90;;;12.40;;
20894;SDS011;10607;42.066;24.742;2024-01-10T10:06:07;23.13;;;12.80;;
20894;SDS011;10607;42.066;24.742;2024-01-10T10:08:32;18.87;;;11.60;;
20894;SDS011;10607;42.066;24.742;2024-01-10T10:10:58;19.07;;;12.00;;
20894;SDS011;10607;42.066;24.742;2024-01-10T10:13:27;19.90;;;11.80;;
20894;SDS011;10607;42.066;24.742;2024-01-10T10:18:24;20.50;;;11.63;;
20894;SDS011;10607;42.066;24.742;2024-01-10T10:21:03;15.53;;;10.40;;
20894;SDS011;10607;42.066;24.742;2024-01-10T10:23:30;19.50;;;11.80;;
20894;SDS011;10607;42.066;24.742;2024-01-10T10:25:56;23.70;;;12.17;;
20894;SDS011;10607;42.066;24.742;2024-01-10T10:28:21;20.83;;;11.33;;
20894;SDS011;10607;42.066;24.742;2024-01-10T10:30:46;20.87;;;11.60;;
20894;SDS011;10607;42.066;24.742;2024-01-10T10:33:11;19.37;;;12.53;;
20894;SDS011;10607;42.066;24.742;2024-01-10T10:35:37;19.90;;;12.07;;
20894;SDS011;10607;42.066;24.742;2024-01-10T10:38:02;20.23;;;11.77;;
20894;SDS011;10607;42.066;24.742;2024-01-10T10:40:28;18.00;;;11.33;;
20894;SDS011;10607;42.066;24.742;2024-01-10T10:42:56;19.77;;;11.97;;
20894;SDS011;10607;42.066;24.742;2024-01-10T10:45:22;19.40;;;11.97;;
20894;SDS011;10607;42.066;24.742;2024-01-10T10:47:51;19.20;;;11.33;;
20894;SDS011;10607;42.066;24.742;2024-01-10T10:50:22;16.50;;;10.37;;
20894;SDS011;10607;42.066;24.742;2024-01-10T10:52:50;16.57;;;10.80;;
20894;SDS011;10607;42.066;24.742;2024-01-10T10:55:16;21.73;;;11.93;;
20894;SDS011;10607;42.066;24.742;2024-01-10T10:57:45;16.30;;;10.53;;
20894;SDS011;10607;42.066;24.742;2024-01-10T11:00:14;19.30;;;11.10;;
20894;SDS011;10607;42.066;24.742;2024-01-10T11:02:43;15.53;;;10.70;;
20894;SDS011;10607;42.066;24.742;2024-01-10T11:05:09;18.90;;;11.77;;
20894;SDS011;10607;42.066;24.742;2024-01-10T11:07:35;21.00;;;12.00;;
20894;SDS011;10607;42.066;24.742;2024-01-10T11:10:00;21.47;;;11.80;;
20894;SDS011;10607;42.066;24.742;2024-01-10T11:12:38;18.80;;;11.47;;
20894;SDS011;10607;42.066;24.742;2024-01-10T11:15:14;15.50;;;10.93;;
20894;SDS011;10607;42.066;24.742;2024-01-10T11:23:13;15.93;;;10.60;;
20894;SDS011;10607;42.066;24.742;2024-01-10T11:25:42;15.80;;;10.23;;
20894;SDS011;10607;42.066;24.742;2024-01-10T11:28:07;15.20;;;9.30;;
20894;SDS011;10607;42.066;24.742;2024-01-10T11:30:36;28.03;;;14.87;;
20894;SDS011;10607;42.066;24.742;2024-01-10T11:33:24;17.63;;;10.70;;
20894;SDS011;10607;42.066;24.742;2024-01-10T11:38:39;16.07;;;9.67;;
20894;SDS011;10607;42.066;24.742;2024-01-10T11:41:05;19.17;;;10.10;;
20894;SDS011;10607;42.066;24.742;2024-01-10T11:43:31;15.97;;;9.50;;
20894;SDS011;10607;42.066;24.742;2024-01-10T11:45:56;17.23;;;10.50;;
20894;SDS011;10607;42.066;24.742;2024-01-10T11:48:28;14.83;;;10.37;;
20894;SDS011;10607;42.066;24.742;2024-01-10T11:50:54;17.17;;;10.33;;
20894;SDS011;10607;42.066;24.742;2024-01-10T11:56:18;19.87;;;10.33;;
20894;SDS011;10607;42.066;24.742;2024-01-10T11:58:53;20.23;;;11.33;;
20894;SDS011;10607;42.066;24.742;2024-01-10T12:01:18;16.03;;;10.60;;
20894;SDS011;10607;42.066;24.742;2024-01-10T12:03:44;15.20;;;10.43;;
20894;SDS011;10607;42.066;24.742;2024-01-10T12:06:09;18.50;;;11.30;;
20894;SDS011;10607;42.066;24.742;2024-01-10T12:08:34;21.23;;;11.33;;
20894;SDS011;10607;42.066;24.742;2024-01-10T12:11:00;14.90;;;10.17;;
20894;SDS011;10607;42.066;24.742;2024-01-10T12:13:26;19.83;;;11.27;;
20894;SDS011;10607;42.066;24.742;2024-01-10T12:15:52;21.03;;;10.70;;
20894;SDS011;10607;42.066;24.742;2024-01-10T12:18:17;17.20;;;11.43;;
20894;SDS011;10607;42.066;24.742;2024-01-10T12:20:42;16.13;;;10.67;;
20894;SDS011;10607;42.066;24.742;2024-01-10T12:23:10;20.90;;;11.10;;
20894;SDS011;10607;42.066;24.742;2024-01-10T12:25:35;19.60;;;11.80;;
20894;SDS011;10607;42.066;24.742;2024-01-10T12:28:02;50.97;;;30.43;;
20894;SDS011;10607;42.066;24.742;2024-01-10T12:30:27;25.63;;;15.40;;
20894;SDS011;10607;42.066;24.742;2024-01-10T12:32:52;18.30;;;12.23;;
20894;SDS011;10607;42.066;24.742;2024-01-10T12:35:18;18.80;;;12.63;;
20894;SDS011;10607;42.066;24.742;2024-01-10T12:37:54;16.30;;;11.20;;
20894;SDS011;10607;42.066;24.742;2024-01-10T12:40:20;16.30;;;9.57;;
20894;SDS011;10607;42.066;24.742;2024-01-10T12:42:45;12.17;;;8.30;;
20894;SDS011;10607;42.066;24.742;2024-01-10T12:45:20;12.43;;;7.67;;
20894;SDS011;10607;42.066;24.742;2024-01-10T12:47:45;12.37;;;7.93;;
20894;SDS011;10607;42.066;24.742;2024-01-10T12:50:11;11.17;;;6.83;;
20894;SDS011;10607;42.066;24.742;2024-01-10T12:52:37;23.00;;;15.37;;
20894;SDS011;10607;42.066;24.742;2024-01-10T12:55:04;18.73;;;12.83;;
20894;SDS011;10607;42.066;24.742;2024-01-10T12:57:30;17.33;;;8.93;;
20894;SDS011;10607;42.066;24.742;2024-01-10T12:59:55;18.80;;;12.73;;
20894;SDS011;10607;42.066;24.742;2024-01-10T13:02:20;20.43;;;11.60;;
20894;SDS011;10607;42.066;24.742;2024-01-10T13:04:46;22.50;;;14.47;;
20894;SDS011;10607;42.066;24.742;2024-01-10T13:07:11;18.53;;;12.47;;
20894;SDS011;10607;42.066;24.742;2024-01-10T13:09:37;18.27;;;12.70;;
20894;SDS011;10607;42.066;24.742;2024-01-10T13:12:02;16.87;;;11.30;;
20894;SDS011;10607;42.066;24.742;2024-01-10T13:14:28;21.40;;;14.20;;
20894;SDS011;10607;42.066;24.742;2024-01-10T13:16:56;23.47;;;13.70;;
20894;SDS011;10607;42.066;24.742;2024-01-10T13:19:21;24.33;;;13.13;;
20894;SDS011;10607;42.066;24.742;2024-01-10T13:21:46;22.40;;;11.23;;
20894;SDS011;10607;42.066;24.742;2024-01-10T13:24:11;19.57;;;11.00;;
20894;SDS011;10607;42.066;24.742;2024-01-10T13:26:37;18.10;;;11.57;;
20894;SDS011;10607;42.066;24.742;2024-01-10T13:29:02;18.57;;;11.63;;
20894;SDS011;10607;42.066;24.742;2024-01-10T13:31:28;21.33;;;12.47;;
20894;SDS011;10607;42.066;24.742;2024-01-10T13:33:53;24.37;;;13.70;;
20894;SDS011;10607;42.066;24.742;2024-01-10T13:36:19;28.10;;;16.13;;
20894;SDS011;10607;42.066;24.742;2024-01-10T13:38:44;30.70;;;17.77;;
20894;SDS011;10607;42.066;24.742;2024-01-10T13:41:10;24.90;;;16.20;;
20894;SDS011;10607;42.066;24.742;2024-01-10T13:43:35;24.23;;;14.90;;
20894;SDS011;10607;42.066;24.742;2024-01-10T13:46:00;22.37;;;13.63;;
20894;SDS011;10607;42.066;24.742;2024-01-10T13:48:29;21.57;;;12.93;;
20894;SDS011;10607;42.066;24.742;2024-01-10T13:50:54;18.47;;;11.40;;
20894;SDS011;10607;42.066;24.742;2024-01-10T13:53:19;21.53;;;11.43;;
20894;SDS011;10607;42.066;24.742;2024-01-10T13:55:45;23.07;;;12.03;;
20894;SDS011;10607;42.066;24.742;2024-01-10T13:58:11;17.77;;;11.07;;
20894;SDS011;10607;42.066;24.742;2024-01-10T14:00:36;18.57;;;11.77;;
20894;SDS011;10607;42.066;24.742;2024-01-10T14:03:03;30.17;;;13.97;;
20894;SDS011;10607;42.066;24.742;2024-01-10T14:05:28;29.53;;;16.00;;
20894;SDS011;10607;42.066;24.742;2024-01-10T14:07:54;23.60;;;14.97;;
20894;SDS011;10607;42.066;24.742;2024-01-10T14:10:19;28.93;;;17.27;;
20894;SDS011;10607;42.066;24.742;2024-01-10T14:12:45;33.63;;;19.07;;
20894;SDS011;10607;42.066;24.742;2024-01-10T14:15:11;33.60;;;19.50;;
20894;SDS011;10607;42.066;24.742;2024-01-10T14:17:36;36.30;;;20.27;;
20894;SDS011;10607;42.066;24.742;2024-01-10T14:20:01;37.47;;;18.60;;